This is the latest recevied weather packets stored in our database for station/object CE3PA-5. If no packets are shown the sender has not sent any weather packets the latest 10 day(s).
| Time | Temp. | Humidity | Pressure | Rain* | Wind** | Luminosity | Snow |
|---|---|---|---|---|---|---|---|
| 1777960553 | 10° C | 20% | 756.3 hPa | - | - | - | - |
| 1777959656 | 10.56° C | 20% | 756.4 hPa | - | - | - | - |
| 1777958756 | 10.56° C | 20% | 756.3 hPa | - | - | - | - |
| 1777957856 | 10.56° C | 20% | 756.4 hPa | - | - | - | - |
| 1777956956 | 10.56° C | 20% | 756.4 hPa | - | - | - | - |
| 1777956056 | 10.56° C | 20% | 756.5 hPa | - | - | - | - |
| 1777955156 | 10.56° C | 20% | 756.5 hPa | - | - | - | - |
| 1777954256 | 10.56° C | 20% | 756.6 hPa | - | - | - | - |
| 1777942554 | 11.67° C | 21% | 756.4 hPa | - | - | - | - |
| 1777920955 | 20° C | 18% | 755.3 hPa | - | - | - | - |
| 1777920053 | 20° C | 18% | 755.5 hPa | - | - | - | - |
| 1777905654 | 14.44° C | 18% | 756.3 hPa | - | - | - | - |
| 1777902953 | 11.67° C | 19% | 756.2 hPa | - | - | - | - |
| 1777901152 | 10.56° C | 19% | 756.1 hPa | - | - | - | - |
| 1777897552 | 9.44° C | 20% | 756.1 hPa | - | - | - | - |
| 1777895752 | 9.44° C | 20% | 756 hPa | - | - | - | - |
| 1777893065 | 9.44° C | 20% | 755.7 hPa | - | - | - | - |
| 1777892163 | 9.44° C | 20% | 755.8 hPa | - | - | - | - |
| 1777890363 | 9.44° C | 20% | 755.7 hPa | - | - | - | - |
| 1777888563 | 8.89° C | 20% | 755.6 hPa | - | - | - | - |
| 1777886762 | 8.89° C | 20% | 755.7 hPa | - | - | - | - |
| 1777885862 | 8.89° C | 20% | 755.6 hPa | - | - | - | - |
| 1777884962 | 8.89° C | 20% | 755.5 hPa | - | - | - | - |
| 1777883162 | 8.89° C | 20% | 755.5 hPa | - | - | - | - |
| 1777882262 | 8.89° C | 20% | 755.7 hPa | - | - | - | - |
* Rain since midnight (hover to see other rain measurements)
** Current wind speed in m/s (hover to see current wind gust speed)